sensor_id;sensor_type;location;lat;lon;timestamp;P1;durP1;ratioP1;P2;durP2;ratioP2
78895;SDS011;68284;59.124;37.910;2023-03-11T00:00:52;3.50;;;3.30;;
78895;SDS011;68284;59.124;37.910;2023-03-11T00:03:20;5.38;;;5.18;;
78895;SDS011;68284;59.124;37.910;2023-03-11T00:05:50;3.65;;;3.45;;
78895;SDS011;68284;59.124;37.910;2023-03-11T00:08:18;3.78;;;3.42;;
78895;SDS011;68284;59.124;37.910;2023-03-11T00:10:56;4.35;;;4.13;;
78895;SDS011;68284;59.124;37.910;2023-03-11T00:13:26;6.65;;;6.28;;
78895;SDS011;68284;59.124;37.910;2023-03-11T00:15:59;10.77;;;10.27;;
78895;SDS011;68284;59.124;37.910;2023-03-11T00:18:26;6.80;;;6.40;;
78895;SDS011;68284;59.124;37.910;2023-03-11T00:20:56;4.78;;;4.57;;
78895;SDS011;68284;59.124;37.910;2023-03-11T00:23:25;15.15;;;14.48;;
78895;SDS011;68284;59.124;37.910;2023-03-11T00:25:52;7.15;;;6.82;;
78895;SDS011;68284;59.124;37.910;2023-03-11T00:28:20;6.88;;;6.32;;
78895;SDS011;68284;59.124;37.910;2023-03-11T00:30:53;10.68;;;10.10;;
78895;SDS011;68284;59.124;37.910;2023-03-11T00:33:20;7.53;;;7.13;;
78895;SDS011;68284;59.124;37.910;2023-03-11T00:38:15;20.40;;;19.35;;
78895;SDS011;68284;59.124;37.910;2023-03-11T00:40:43;8.65;;;8.20;;
78895;SDS011;68284;59.124;37.910;2023-03-11T00:43:11;12.05;;;11.27;;
78895;SDS011;68284;59.124;37.910;2023-03-11T00:45:38;8.20;;;7.75;;
78895;SDS011;68284;59.124;37.910;2023-03-11T00:48:05;7.20;;;6.80;;
78895;SDS011;68284;59.124;37.910;2023-03-11T00:50:33;9.65;;;9.15;;
78895;SDS011;68284;59.124;37.910;2023-03-11T00:53:02;11.15;;;10.40;;
78895;SDS011;68284;59.124;37.910;2023-03-11T00:55:30;10.80;;;10.10;;
78895;SDS011;68284;59.124;37.910;2023-03-11T00:58:03;16.10;;;14.95;;
78895;SDS011;68284;59.124;37.910;2023-03-11T01:00:59;12.32;;;11.50;;
78895;SDS011;68284;59.124;37.910;2023-03-11T01:03:26;12.00;;;11.27;;
78895;SDS011;68284;59.124;37.910;2023-03-11T01:05:52;18.10;;;17.17;;
78895;SDS011;68284;59.124;37.910;2023-03-11T01:08:18;7.97;;;7.55;;
78895;SDS011;68284;59.124;37.910;2023-03-11T01:10:47;9.80;;;9.20;;
78895;SDS011;68284;59.124;37.910;2023-03-11T01:13:15;13.30;;;12.57;;
78895;SDS011;68284;59.124;37.910;2023-03-11T01:15:41;20.08;;;18.98;;
78895;SDS011;68284;59.124;37.910;2023-03-11T01:18:10;9.23;;;8.52;;
78895;SDS011;68284;59.124;37.910;2023-03-11T01:20:37;16.17;;;15.40;;
78895;SDS011;68284;59.124;37.910;2023-03-11T01:23:04;8.95;;;8.40;;
78895;SDS011;68284;59.124;37.910;2023-03-11T01:25:33;12.38;;;11.63;;
78895;SDS011;68284;59.124;37.910;2023-03-11T01:28:01;20.95;;;19.95;;
78895;SDS011;68284;59.124;37.910;2023-03-11T01:30:30;17.10;;;16.15;;
78895;SDS011;68284;59.124;37.910;2023-03-11T01:33:00;10.70;;;10.07;;
78895;SDS011;68284;59.124;37.910;2023-03-11T01:35:27;10.63;;;10.00;;
78895;SDS011;68284;59.124;37.910;2023-03-11T01:37:55;12.52;;;11.68;;
78895;SDS011;68284;59.124;37.910;2023-03-11T01:43:06;13.73;;;12.93;;
78895;SDS011;68284;59.124;37.910;2023-03-11T01:48:50;28.30;;;26.67;;
78895;SDS011;68284;59.124;37.910;2023-03-11T01:54:09;16.98;;;15.88;;
78895;SDS011;68284;59.124;37.910;2023-03-11T01:56:39;20.13;;;18.88;;
78895;SDS011;68284;59.124;37.910;2023-03-11T01:59:31;34.40;;;32.22;;
78895;SDS011;68284;59.124;37.910;2023-03-11T02:04:41;28.98;;;26.92;;
78895;SDS011;68284;59.124;37.910;2023-03-11T02:07:08;24.20;;;22.70;;
78895;SDS011;68284;59.124;37.910;2023-03-11T02:09:36;25.70;;;23.98;;
78895;SDS011;68284;59.124;37.910;2023-03-11T02:12:04;31.15;;;29.00;;
78895;SDS011;68284;59.124;37.910;2023-03-11T02:14:32;29.75;;;27.85;;
78895;SDS011;68284;59.124;37.910;2023-03-11T02:17:00;28.65;;;26.67;;
78895;SDS011;68284;59.124;37.910;2023-03-11T02:19:55;32.00;;;28.77;;
78895;SDS011;68284;59.124;37.910;2023-03-11T02:22:38;36.22;;;33.75;;
78895;SDS011;68284;59.124;37.910;2023-03-11T02:25:13;36.53;;;33.83;;
78895;SDS011;68284;59.124;37.910;2023-03-11T02:27:44;35.05;;;32.70;;
78895;SDS011;68284;59.124;37.910;2023-03-11T02:30:15;32.38;;;29.27;;
78895;SDS011;68284;59.124;37.910;2023-03-11T02:32:43;31.65;;;29.48;;
78895;SDS011;68284;59.124;37.910;2023-03-11T02:35:18;32.65;;;30.33;;
78895;SDS011;68284;59.124;37.910;2023-03-11T02:37:47;43.05;;;40.63;;
78895;SDS011;68284;59.124;37.910;2023-03-11T02:42:57;25.85;;;24.20;;
78895;SDS011;68284;59.124;37.910;2023-03-11T02:45:30;26.50;;;24.77;;
78895;SDS011;68284;59.124;37.910;2023-03-11T02:47:57;27.00;;;25.33;;
78895;SDS011;68284;59.124;37.910;2023-03-11T02:50:25;25.25;;;23.55;;
78895;SDS011;68284;59.124;37.910;2023-03-11T02:52:54;25.63;;;23.77;;
78895;SDS011;68284;59.124;37.910;2023-03-11T02:55:21;21.52;;;20.23;;
78895;SDS011;68284;59.124;37.910;2023-03-11T02:57:47;22.08;;;20.67;;
78895;SDS011;68284;59.124;37.910;2023-03-11T03:00:14;22.15;;;20.50;;
78895;SDS011;68284;59.124;37.910;2023-03-11T03:02:48;37.13;;;34.97;;
78895;SDS011;68284;59.124;37.910;2023-03-11T03:05:17;22.10;;;20.33;;
78895;SDS011;68284;59.124;37.910;2023-03-11T03:07:47;22.38;;;21.00;;
78895;SDS011;68284;59.124;37.910;2023-03-11T03:10:16;23.40;;;21.98;;
78895;SDS011;68284;59.124;37.910;2023-03-11T03:12:43;23.65;;;22.20;;
78895;SDS011;68284;59.124;37.910;2023-03-11T03:15:10;26.55;;;24.95;;
78895;SDS011;68284;59.124;37.910;2023-03-11T03:17:37;25.50;;;24.00;;
78895;SDS011;68284;59.124;37.910;2023-03-11T03:20:06;23.30;;;21.88;;
78895;SDS011;68284;59.124;37.910;2023-03-11T03:22:39;25.27;;;23.70;;
78895;SDS011;68284;59.124;37.910;2023-03-11T03:25:07;24.80;;;23.05;;
78895;SDS011;68284;59.124;37.910;2023-03-11T03:27:35;25.70;;;23.90;;
78895;SDS011;68284;59.124;37.910;2023-03-11T03:30:04;21.85;;;20.48;;
78895;SDS011;68284;59.124;37.910;2023-03-11T03:32:33;24.13;;;22.42;;
78895;SDS011;68284;59.124;37.910;2023-03-11T03:35:02;24.08;;;22.63;;
78895;SDS011;68284;59.124;37.910;2023-03-11T03:37:50;31.75;;;29.77;;
78895;SDS011;68284;59.124;37.910;2023-03-11T03:40:17;27.00;;;25.42;;
78895;SDS011;68284;59.124;37.910;2023-03-11T03:42:45;28.00;;;26.33;;
78895;SDS011;68284;59.124;37.910;2023-03-11T03:45:12;28.65;;;26.98;;
78895;SDS011;68284;59.124;37.910;2023-03-11T03:47:38;27.42;;;25.60;;
78895;SDS011;68284;59.124;37.910;2023-03-11T03:50:06;22.33;;;20.88;;
78895;SDS011;68284;59.124;37.910;2023-03-11T03:52:38;36.70;;;34.58;;
78895;SDS011;68284;59.124;37.910;2023-03-11T03:55:05;23.83;;;22.33;;
78895;SDS011;68284;59.124;37.910;2023-03-11T03:57:32;24.33;;;22.85;;
78895;SDS011;68284;59.124;37.910;2023-03-11T03:59:58;32.13;;;30.17;;
78895;SDS011;68284;59.124;37.910;2023-03-11T04:02:26;30.45;;;28.67;;
78895;SDS011;68284;59.124;37.910;2023-03-11T04:04:54;25.55;;;23.95;;
78895;SDS011;68284;59.124;37.910;2023-03-11T04:07:20;32.55;;;30.48;;
78895;SDS011;68284;59.124;37.910;2023-03-11T04:09:48;27.55;;;25.77;;
78895;SDS011;68284;59.124;37.910;2023-03-11T04:12:15;25.58;;;24.02;;
78895;SDS011;68284;59.124;37.910;2023-03-11T04:14:49;27.15;;;25.58;;
78895;SDS011;68284;59.124;37.910;2023-03-11T04:17:17;21.38;;;20.00;;
78895;SDS011;68284;59.124;37.910;2023-03-11T04:19:45;18.70;;;17.60;;
78895;SDS011;68284;59.124;37.910;2023-03-11T04:22:11;25.67;;;24.27;;
78895;SDS011;68284;59.124;37.910;2023-03-11T04:24:38;18.83;;;17.73;;
78895;SDS011;68284;59.124;37.910;2023-03-11T04:27:04;17.58;;;16.52;;
78895;SDS011;68284;59.124;37.910;2023-03-11T04:29:32;19.83;;;18.65;;
78895;SDS011;68284;59.124;37.910;2023-03-11T04:31:59;15.98;;;15.05;;
78895;SDS011;68284;59.124;37.910;2023-03-11T04:34:25;14.75;;;13.88;;
78895;SDS011;68284;59.124;37.910;2023-03-11T04:36:55;13.10;;;12.05;;
78895;SDS011;68284;59.124;37.910;2023-03-11T04:39:27;11.85;;;11.23;;
78895;SDS011;68284;59.124;37.910;2023-03-11T04:41:55;11.15;;;10.52;;
78895;SDS011;68284;59.124;37.910;2023-03-11T04:44:25;10.57;;;9.93;;
78895;SDS011;68284;59.124;37.910;2023-03-11T04:46:52;12.75;;;12.05;;
78895;SDS011;68284;59.124;37.910;2023-03-11T04:49:18;13.45;;;12.68;;
78895;SDS011;68284;59.124;37.910;2023-03-11T04:51:44;11.98;;;11.30;;
78895;SDS011;68284;59.124;37.910;2023-03-11T04:54:13;14.88;;;13.85;;
78895;SDS011;68284;59.124;37.910;2023-03-11T04:56:40;13.13;;;12.32;;
78895;SDS011;68284;59.124;37.910;2023-03-11T04:59:07;11.63;;;10.82;;
78895;SDS011;68284;59.124;37.910;2023-03-11T05:01:36;12.60;;;11.75;;
78895;SDS011;68284;59.124;37.910;2023-03-11T05:04:07;13.45;;;12.50;;
78895;SDS011;68284;59.124;37.910;2023-03-11T05:06:34;9.85;;;9.23;;
78895;SDS011;68284;59.124;37.910;2023-03-11T05:09:02;12.10;;;11.35;;
78895;SDS011;68284;59.124;37.910;2023-03-11T05:11:35;10.05;;;9.45;;
78895;SDS011;68284;59.124;37.910;2023-03-11T05:14:02;14.35;;;13.45;;
78895;SDS011;68284;59.124;37.910;2023-03-11T05:16:29;13.23;;;12.55;;
78895;SDS011;68284;59.124;37.910;2023-03-11T05:18:56;6.50;;;6.10;;
78895;SDS011;68284;59.124;37.910;2023-03-11T05:21:23;7.80;;;6.43;;
78895;SDS011;68284;59.124;37.910;2023-03-11T05:23:49;6.40;;;5.82;;
78895;SDS011;68284;59.124;37.910;2023-03-11T05:26:15;4.82;;;4.22;;
78895;SDS011;68284;59.124;37.910;2023-03-11T05:28:43;6.75;;;6.20;;
78895;SDS011;68284;59.124;37.910;2023-03-11T05:31:13;5.07;;;4.65;;
78895;SDS011;68284;59.124;37.910;2023-03-11T05:33:39;8.25;;;7.53;;
78895;SDS011;68284;59.124;37.910;2023-03-11T05:36:11;6.95;;;5.50;;
78895;SDS011;68284;59.124;37.910;2023-03-11T05:38:41;7.00;;;6.07;;
78895;SDS011;68284;59.124;37.910;2023-03-11T05:41:08;6.60;;;6.07;;
78895;SDS011;68284;59.124;37.910;2023-03-11T05:43:35;6.30;;;5.80;;
78895;SDS011;68284;59.124;37.910;2023-03-11T05:46:01;6.50;;;4.63;;
78895;SDS011;68284;59.124;37.910;2023-03-11T05:48:30;12.10;;;11.40;;
78895;SDS011;68284;59.124;37.910;2023-03-11T05:50:58;5.90;;;3.95;;
78895;SDS011;68284;59.124;37.910;2023-03-11T05:53:25;6.28;;;5.88;;
78895;SDS011;68284;59.124;37.910;2023-03-11T05:55:55;6.53;;;3.95;;
78895;SDS011;68284;59.124;37.910;2023-03-11T05:58:24;6.93;;;5.72;;
78895;SDS011;68284;59.124;37.910;2023-03-11T06:00:52;9.73;;;4.38;;
78895;SDS011;68284;59.124;37.910;2023-03-11T06:03:18;8.95;;;8.32;;
78895;SDS011;68284;59.124;37.910;2023-03-11T06:05:48;6.65;;;3.97;;
78895;SDS011;68284;59.124;37.910;2023-03-11T06:08:17;9.80;;;9.20;;
78895;SDS011;68284;59.124;37.910;2023-03-11T06:10:45;6.78;;;6.00;;
78895;SDS011;68284;59.124;37.910;2023-03-11T06:13:11;4.53;;;3.97;;
78895;SDS011;68284;59.124;37.910;2023-03-11T06:15:50;11.25;;;10.60;;
78895;SDS011;68284;59.124;37.910;2023-03-11T06:18:23;3.80;;;3.22;;
78895;SDS011;68284;59.124;37.910;2023-03-11T06:20:56;4.78;;;3.53;;
78895;SDS011;68284;59.124;37.910;2023-03-11T06:23:24;8.38;;;5.53;;
78895;SDS011;68284;59.124;37.910;2023-03-11T06:25:55;6.82;;;5.63;;
78895;SDS011;68284;59.124;37.910;2023-03-11T06:28:36;4.25;;;3.42;;
78895;SDS011;68284;59.124;37.910;2023-03-11T06:31:07;4.72;;;4.22;;
78895;SDS011;68284;59.124;37.910;2023-03-11T06:33:39;5.43;;;5.00;;
78895;SDS011;68284;59.124;37.910;2023-03-11T06:36:06;7.78;;;7.00;;
78895;SDS011;68284;59.124;37.910;2023-03-11T06:38:35;3.47;;;3.17;;
78895;SDS011;68284;59.124;37.910;2023-03-11T06:41:06;10.80;;;9.70;;
78895;SDS011;68284;59.124;37.910;2023-03-11T06:43:34;3.40;;;3.10;;
78895;SDS011;68284;59.124;37.910;2023-03-11T06:46:06;3.38;;;3.08;;
78895;SDS011;68284;59.124;37.910;2023-03-11T06:48:44;5.28;;;3.08;;
78895;SDS011;68284;59.124;37.910;2023-03-11T06:51:18;3.72;;;2.95;;
78895;SDS011;68284;59.124;37.910;2023-03-11T06:53:48;4.85;;;2.97;;
78895;SDS011;68284;59.124;37.910;2023-03-11T06:56:19;8.27;;;7.60;;
78895;SDS011;68284;59.124;37.910;2023-03-11T06:58:52;7.22;;;5.03;;
78895;SDS011;68284;59.124;37.910;2023-03-11T07:01:20;6.22;;;5.25;;
78895;SDS011;68284;59.124;37.910;2023-03-11T07:03:49;3.88;;;3.53;;
78895;SDS011;68284;59.124;37.910;2023-03-11T07:06:19;8.10;;;7.40;;
78895;SDS011;68284;59.124;37.910;2023-03-11T07:08:48;5.35;;;3.70;;
78895;SDS011;68284;59.124;37.910;2023-03-11T07:11:22;5.55;;;2.95;;
78895;SDS011;68284;59.124;37.910;2023-03-11T07:13:54;3.25;;;3.03;;
78895;SDS011;68284;59.124;37.910;2023-03-11T07:16:21;4.97;;;3.55;;
78895;SDS011;68284;59.124;37.910;2023-03-11T07:18:58;4.88;;;2.70;;
78895;SDS011;68284;59.124;37.910;2023-03-11T07:21:27;6.03;;;5.10;;
78895;SDS011;68284;59.124;37.910;2023-03-11T07:24:00;5.95;;;4.32;;
78895;SDS011;68284;59.124;37.910;2023-03-11T07:26:28;4.32;;;3.03;;
78895;SDS011;68284;59.124;37.910;2023-03-11T07:28:55;4.07;;;3.60;;
78895;SDS011;68284;59.124;37.910;2023-03-11T07:31:26;4.43;;;3.03;;
78895;SDS011;68284;59.124;37.910;2023-03-11T07:33:55;6.90;;;6.20;;
78895;SDS011;68284;59.124;37.910;2023-03-11T07:36:23;5.28;;;4.25;;
78895;SDS011;68284;59.124;37.910;2023-03-11T07:38:58;4.05;;;2.45;;
78895;SDS011;68284;59.124;37.910;2023-03-11T07:41:28;3.78;;;2.58;;
78895;SDS011;68284;59.124;37.910;2023-03-11T07:43:57;10.52;;;9.80;;
78895;SDS011;68284;59.124;37.910;2023-03-11T07:46:25;6.10;;;5.60;;
78895;SDS011;68284;59.124;37.910;2023-03-11T07:48:52;3.67;;;2.90;;
78895;SDS011;68284;59.124;37.910;2023-03-11T07:51:19;4.47;;;3.15;;
78895;SDS011;68284;59.124;37.910;2023-03-11T07:53:48;8.02;;;4.75;;
78895;SDS011;68284;59.124;37.910;2023-03-11T07:56:20;3.95;;;2.90;;
78895;SDS011;68284;59.124;37.910;2023-03-11T07:58:51;3.38;;;2.28;;
78895;SDS011;68284;59.124;37.910;2023-03-11T08:01:33;3.78;;;3.40;;
78895;SDS011;68284;59.124;37.910;2023-03-11T08:04:06;5.00;;;4.43;;
78895;SDS011;68284;59.124;37.910;2023-03-11T08:06:38;5.95;;;2.47;;
78895;SDS011;68284;59.124;37.910;2023-03-11T08:09:07;5.10;;;2.72;;
78895;SDS011;68284;59.124;37.910;2023-03-11T08:11:35;4.60;;;4.20;;
78895;SDS011;68284;59.124;37.910;2023-03-11T08:14:01;4.35;;;3.78;;
78895;SDS011;68284;59.124;37.910;2023-03-11T08:16:28;3.38;;;2.80;;
78895;SDS011;68284;59.124;37.910;2023-03-11T08:18:56;2.97;;;2.60;;
78895;SDS011;68284;59.124;37.910;2023-03-11T08:21:23;3.33;;;1.45;;
78895;SDS011;68284;59.124;37.910;2023-03-11T08:23:51;2.03;;;1.65;;
78895;SDS011;68284;59.124;37.910;2023-03-11T08:26:22;2.78;;;2.42;;
78895;SDS011;68284;59.124;37.910;2023-03-11T08:28:50;3.50;;;2.90;;
78895;SDS011;68284;59.124;37.910;2023-03-11T08:31:23;2.20;;;1.98;;
78895;SDS011;68284;59.124;37.910;2023-03-11T08:33:55;2.28;;;2.13;;
78895;SDS011;68284;59.124;37.910;2023-03-11T08:36:24;3.20;;;2.20;;
78895;SDS011;68284;59.124;37.910;2023-03-11T08:38:50;3.67;;;3.05;;
78895;SDS011;68284;59.124;37.910;2023-03-11T08:41:16;2.72;;;2.53;;
78895;SDS011;68284;59.124;37.910;2023-03-11T08:43:43;2.25;;;1.52;;
78895;SDS011;68284;59.124;37.910;2023-03-11T08:46:34;2.40;;;1.42;;
78895;SDS011;68284;59.124;37.910;2023-03-11T08:49:03;2.80;;;2.60;;
78895;SDS011;68284;59.124;37.910;2023-03-11T08:51:31;2.80;;;2.67;;
78895;SDS011;68284;59.124;37.910;2023-03-11T08:53:59;3.28;;;2.70;;
78895;SDS011;68284;59.124;37.910;2023-03-11T08:56:26;2.08;;;1.88;;
78895;SDS011;68284;59.124;37.910;2023-03-11T08:58:57;2.33;;;2.13;;
78895;SDS011;68284;59.124;37.910;2023-03-11T09:01:24;2.28;;;2.08;;
78895;SDS011;68284;59.124;37.910;2023-03-11T09:03:50;5.93;;;5.53;;
78895;SDS011;68284;59.124;37.910;2023-03-11T09:06:17;1.75;;;1.65;;
78895;SDS011;68284;59.124;37.910;2023-03-11T09:08:46;1.83;;;1.50;;
78895;SDS011;68284;59.124;37.910;2023-03-11T09:11:14;2.05;;;1.83;;
78895;SDS011;68284;59.124;37.910;2023-03-11T09:13:41;2.28;;;1.48;;
78895;SDS011;68284;59.124;37.910;2023-03-11T09:16:12;2.17;;;2.08;;
78895;SDS011;68284;59.124;37.910;2023-03-11T09:18:40;2.25;;;1.52;;
78895;SDS011;68284;59.124;37.910;2023-03-11T09:21:06;1.50;;;1.15;;
78895;SDS011;68284;59.124;37.910;2023-03-11T09:23:33;3.88;;;3.67;;
78895;SDS011;68284;59.124;37.910;2023-03-11T09:25:59;3.97;;;3.78;;
78895;SDS011;68284;59.124;37.910;2023-03-11T09:28:25;2.35;;;2.15;;
78895;SDS011;68284;59.124;37.910;2023-03-11T09:30:51;1.40;;;1.30;;
78895;SDS011;68284;59.124;37.910;2023-03-11T09:33:17;2.33;;;2.22;;
78895;SDS011;68284;59.124;37.910;2023-03-11T09:35:44;3.25;;;1.95;;
78895;SDS011;68284;59.124;37.910;2023-03-11T09:38:10;2.50;;;1.60;;
78895;SDS011;68284;59.124;37.910;2023-03-11T09:40:47;3.47;;;1.92;;
78895;SDS011;68284;59.124;37.910;2023-03-11T09:51:52;2.70;;;2.33;;
78895;SDS011;68284;59.124;37.910;2023-03-11T09:54:28;2.88;;;2.47;;
78895;SDS011;68284;59.124;37.910;2023-03-11T09:57:00;2.25;;;2.05;;
78895;SDS011;68284;59.124;37.910;2023-03-11T09:59:30;4.20;;;3.75;;
78895;SDS011;68284;59.124;37.910;2023-03-11T10:01:57;4.35;;;2.78;;
78895;SDS011;68284;59.124;37.910;2023-03-11T10:04:26;2.40;;;2.13;;
78895;SDS011;68284;59.124;37.910;2023-03-11T10:14:58;2.47;;;1.75;;
78895;SDS011;68284;59.124;37.910;2023-03-11T10:26:36;3.92;;;2.75;;
78895;SDS011;68284;59.124;37.910;2023-03-11T10:29:26;1.92;;;1.35;;
78895;SDS011;68284;59.124;37.910;2023-03-11T10:32:25;2.17;;;1.73;;
78895;SDS011;68284;59.124;37.910;2023-03-11T10:37:53;5.63;;;3.85;;
78895;SDS011;68284;59.124;37.910;2023-03-11T10:40:30;2.15;;;1.77;;
78895;SDS011;68284;59.124;37.910;2023-03-11T10:43:08;1.98;;;1.15;;
78895;SDS011;68284;59.124;37.910;2023-03-11T10:45:41;3.75;;;1.98;;
78895;SDS011;68284;59.124;37.910;2023-03-11T10:48:14;1.92;;;1.42;;
78895;SDS011;68284;59.124;37.910;2023-03-11T10:51:24;4.13;;;3.83;;
78895;SDS011;68284;59.124;37.910;2023-03-11T10:54:00;1.73;;;1.60;;
78895;SDS011;68284;59.124;37.910;2023-03-11T10:56:38;1.45;;;1.15;;
78895;SDS011;68284;59.124;37.910;2023-03-11T10:59:22;1.77;;;1.05;;
78895;SDS011;68284;59.124;37.910;2023-03-11T11:02:01;2.33;;;2.20;;
78895;SDS011;68284;59.124;37.910;2023-03-11T11:05:01;1.75;;;1.55;;
78895;SDS011;68284;59.124;37.910;2023-03-11T11:07:39;1.98;;;1.58;;
78895;SDS011;68284;59.124;37.910;2023-03-11T11:16:21;1.60;;;1.40;;
78895;SDS011;68284;59.124;37.910;2023-03-11T11:19:20;3.80;;;1.55;;
78895;SDS011;68284;59.124;37.910;2023-03-11T11:21:49;2.22;;;1.90;;
78895;SDS011;68284;59.124;37.910;2023-03-11T11:24:24;2.05;;;1.35;;
78895;SDS011;68284;59.124;37.910;2023-03-11T11:27:02;1.88;;;1.67;;
78895;SDS011;68284;59.124;37.910;2023-03-11T11:32:46;1.77;;;1.67;;
78895;SDS011;68284;59.124;37.910;2023-03-11T11:35:23;3.22;;;2.40;;
78895;SDS011;68284;59.124;37.910;2023-03-11T11:37:51;2.25;;;2.05;;
78895;SDS011;68284;59.124;37.910;2023-03-11T11:40:35;3.72;;;2.70;;
78895;SDS011;68284;59.124;37.910;2023-03-11T11:43:17;2.42;;;2.05;;
78895;SDS011;68284;59.124;37.910;2023-03-11T11:49:01;2.67;;;1.95;;
78895;SDS011;68284;59.124;37.910;2023-03-11T11:51:49;2.13;;;1.75;;
78895;SDS011;68284;59.124;37.910;2023-03-11T11:54:39;1.30;;;1.20;;
78895;SDS011;68284;59.124;37.910;2023-03-11T11:57:15;1.85;;;1.27;;
78895;SDS011;68284;59.124;37.910;2023-03-11T11:59:43;1.50;;;1.40;;
78895;SDS011;68284;59.124;37.910;2023-03-11T12:10:36;2.20;;;1.08;;
78895;SDS011;68284;59.124;37.910;2023-03-11T12:15:55;1.50;;;1.33;;
78895;SDS011;68284;59.124;37.910;2023-03-11T12:21:53;2.95;;;2.72;;
78895;SDS011;68284;59.124;37.910;2023-03-11T12:26:40;3.20;;;2.85;;
78895;SDS011;68284;59.124;37.910;2023-03-11T12:32:04;4.13;;;2.65;;
78895;SDS011;68284;59.124;37.910;2023-03-11T12:34:34;5.00;;;4.57;;
78895;SDS011;68284;59.124;37.910;2023-03-11T12:37:01;3.92;;;2.47;;
78895;SDS011;68284;59.124;37.910;2023-03-11T12:39:37;2.63;;;1.90;;
78895;SDS011;68284;59.124;37.910;2023-03-11T12:44:36;3.53;;;2.83;;
78895;SDS011;68284;59.124;37.910;2023-03-11T12:49:36;4.40;;;1.75;;
78895;SDS011;68284;59.124;37.910;2023-03-11T12:54:48;2.85;;;2.53;;
78895;SDS011;68284;59.124;37.910;2023-03-11T12:57:49;3.15;;;2.35;;
78895;SDS011;68284;59.124;37.910;2023-03-11T13:03:26;3.38;;;2.55;;
78895;SDS011;68284;59.124;37.910;2023-03-11T13:09:21;3.85;;;3.47;;
78895;SDS011;68284;59.124;37.910;2023-03-11T13:11:48;2.08;;;1.75;;
78895;SDS011;68284;59.124;37.910;2023-03-11T13:14:28;2.88;;;2.20;;
78895;SDS011;68284;59.124;37.910;2023-03-11T13:19:58;2.70;;;2.03;;
78895;SDS011;68284;59.124;37.910;2023-03-11T13:22:41;2.95;;;2.65;;
78895;SDS011;68284;59.124;37.910;2023-03-11T13:25:28;2.97;;;2.35;;
78895;SDS011;68284;59.124;37.910;2023-03-11T13:28:10;4.20;;;3.90;;
78895;SDS011;68284;59.124;37.910;2023-03-11T13:41:55;3.13;;;2.92;;
78895;SDS011;68284;59.124;37.910;2023-03-11T13:44:28;3.38;;;3.05;;
78895;SDS011;68284;59.124;37.910;2023-03-11T13:52:47;1.02;;;0.95;;
78895;SDS011;68284;59.124;37.910;2023-03-11T13:55:24;1.83;;;1.45;;
78895;SDS011;68284;59.124;37.910;2023-03-11T13:57:59;1.23;;;1.20;;
78895;SDS011;68284;59.124;37.910;2023-03-11T14:00:26;0.75;;;0.70;;
78895;SDS011;68284;59.124;37.910;2023-03-11T14:02:55;1.52;;;1.08;;
78895;SDS011;68284;59.124;37.910;2023-03-11T14:05:37;0.60;;;0.60;;
78895;SDS011;68284;59.124;37.910;2023-03-11T14:08:17;1.02;;;0.75;;
78895;SDS011;68284;59.124;37.910;2023-03-11T14:10:58;2.03;;;1.73;;
78895;SDS011;68284;59.124;37.910;2023-03-11T14:13:26;2.17;;;1.95;;
78895;SDS011;68284;59.124;37.910;2023-03-11T14:16:04;1.08;;;0.88;;
78895;SDS011;68284;59.124;37.910;2023-03-11T14:18:47;1.67;;;1.58;;
78895;SDS011;68284;59.124;37.910;2023-03-11T14:21:30;1.33;;;1.23;;
78895;SDS011;68284;59.124;37.910;2023-03-11T14:23:58;2.85;;;1.88;;
78895;SDS011;68284;59.124;37.910;2023-03-11T14:26:27;0.95;;;0.95;;
78895;SDS011;68284;59.124;37.910;2023-03-11T14:29:06;1.40;;;1.30;;
78895;SDS011;68284;59.124;37.910;2023-03-11T14:31:37;1.75;;;1.65;;
78895;SDS011;68284;59.124;37.910;2023-03-11T14:36:47;1.90;;;1.27;;
78895;SDS011;68284;59.124;37.910;2023-03-11T14:39:28;1.88;;;1.10;;
78895;SDS011;68284;59.124;37.910;2023-03-11T14:44:37;1.55;;;1.45;;
78895;SDS011;68284;59.124;37.910;2023-03-11T14:47:15;1.48;;;1.38;;
78895;SDS011;68284;59.124;37.910;2023-03-11T14:49:45;1.83;;;1.52;;
78895;SDS011;68284;59.124;37.910;2023-03-11T14:52:18;2.53;;;2.38;;
78895;SDS011;68284;59.124;37.910;2023-03-11T14:54:50;2.80;;;2.00;;
78895;SDS011;68284;59.124;37.910;2023-03-11T15:00:04;2.50;;;2.33;;
78895;SDS011;68284;59.124;37.910;2023-03-11T15:02:41;1.80;;;1.40;;
78895;SDS011;68284;59.124;37.910;2023-03-11T15:05:19;1.35;;;1.25;;
78895;SDS011;68284;59.124;37.910;2023-03-11T15:07:55;3.25;;;1.95;;
78895;SDS011;68284;59.124;37.910;2023-03-11T15:10:26;2.25;;;2.03;;
78895;SDS011;68284;59.124;37.910;2023-03-11T15:13:02;1.67;;;1.58;;
78895;SDS011;68284;59.124;37.910;2023-03-11T15:15:30;3.00;;;1.38;;
78895;SDS011;68284;59.124;37.910;2023-03-11T15:17:58;2.08;;;1.80;;
78895;SDS011;68284;59.124;37.910;2023-03-11T15:20:30;4.40;;;1.60;;
78895;SDS011;68284;59.124;37.910;2023-03-11T15:23:05;2.10;;;1.00;;
78895;SDS011;68284;59.124;37.910;2023-03-11T15:25:35;2.05;;;1.95;;
78895;SDS011;68284;59.124;37.910;2023-03-11T15:28:19;1.67;;;1.58;;
78895;SDS011;68284;59.124;37.910;2023-03-11T15:33:42;1.48;;;1.45;;
78895;SDS011;68284;59.124;37.910;2023-03-11T15:44:20;2.35;;;2.15;;
78895;SDS011;68284;59.124;37.910;2023-03-11T15:46:48;1.92;;;1.52;;
78895;SDS011;68284;59.124;37.910;2023-03-11T15:49:15;2.10;;;1.98;;
78895;SDS011;68284;59.124;37.910;2023-03-11T15:51:41;1.98;;;1.17;;
78895;SDS011;68284;59.124;37.910;2023-03-11T15:54:07;1.60;;;1.25;;
78895;SDS011;68284;59.124;37.910;2023-03-11T15:56:36;2.33;;;1.75;;
78895;SDS011;68284;59.124;37.910;2023-03-11T15:59:04;2.05;;;1.10;;
78895;SDS011;68284;59.124;37.910;2023-03-11T16:01:33;1.92;;;1.83;;
78895;SDS011;68284;59.124;37.910;2023-03-11T16:04:13;1.83;;;1.70;;
78895;SDS011;68284;59.124;37.910;2023-03-11T16:06:48;1.42;;;1.33;;
78895;SDS011;68284;59.124;37.910;2023-03-11T16:09:17;1.73;;;1.63;;
78895;SDS011;68284;59.124;37.910;2023-03-11T16:11:57;1.77;;;1.40;;
78895;SDS011;68284;59.124;37.910;2023-03-11T16:14:36;3.17;;;2.97;;
78895;SDS011;68284;59.124;37.910;2023-03-11T16:17:04;2.17;;;2.05;;
78895;SDS011;68284;59.124;37.910;2023-03-11T16:19:32;1.27;;;1.17;;
78895;SDS011;68284;59.124;37.910;2023-03-11T16:22:03;2.05;;;1.30;;
78895;SDS011;68284;59.124;37.910;2023-03-11T16:24:35;2.67;;;2.35;;
78895;SDS011;68284;59.124;37.910;2023-03-11T16:27:02;4.20;;;3.65;;
78895;SDS011;68284;59.124;37.910;2023-03-11T16:29:31;2.70;;;1.92;;
78895;SDS011;68284;59.124;37.910;2023-03-11T16:31:59;1.73;;;1.63;;
78895;SDS011;68284;59.124;37.910;2023-03-11T16:34:25;3.13;;;2.92;;
78895;SDS011;68284;59.124;37.910;2023-03-11T16:36:56;3.55;;;3.25;;
78895;SDS011;68284;59.124;37.910;2023-03-11T16:39:23;1.73;;;1.33;;
78895;SDS011;68284;59.124;37.910;2023-03-11T16:41:53;3.35;;;1.73;;
78895;SDS011;68284;59.124;37.910;2023-03-11T16:44:22;3.10;;;2.92;;
78895;SDS011;68284;59.124;37.910;2023-03-11T16:46:50;2.38;;;1.40;;
78895;SDS011;68284;59.124;37.910;2023-03-11T16:49:17;1.95;;;1.73;;
78895;SDS011;68284;59.124;37.910;2023-03-11T16:51:46;2.10;;;1.08;;
78895;SDS011;68284;59.124;37.910;2023-03-11T16:54:38;3.05;;;2.85;;
78895;SDS011;68284;59.124;37.910;2023-03-11T16:57:05;6.03;;;1.90;;
78895;SDS011;68284;59.124;37.910;2023-03-11T16:59:32;1.45;;;1.35;;